Time;durP1;ratioP1;P1;durP2;ratioP2;P2;SDS_P1;SDS_P2;PMS_P1;PMS_P2;Temp;Humidity;BMP_temperature;BMP_pressure;BME280_temperature;BME280_humidity;BME280_pressure;Samples;Min_cycle;Max_cycle;Signal;HPM_P1;HPM_P2
2023/07/07 00:01:36;;;;;;;7.65;4.63;;;14.60;99.90;;;;;;6246422;28;20046;-81
2023/07/07 00:04:37;;;;;;;8.57;4.43;;;14.60;99.90;;;;;;6247482;28;20057;-81
2023/07/07 00:07:39;;;;;;;7.40;5.15;;;14.50;99.90;;;;;;6241532;28;20390;-80
2023/07/07 00:10:42;;;;;;;5.65;4.03;;;14.50;99.90;;;;;;6249294;28;20045;-81
2023/07/07 00:13:44;;;;;;;5.20;4.00;;;14.30;99.90;;;;;;6252697;28;20053;-81
2023/07/07 00:16:47;;;;;;;5.20;4.07;;;14.30;99.90;;;;;;6253018;28;20060;-80
2023/07/07 00:19:49;;;;;;;5.47;4.15;;;14.30;99.90;;;;;;6251429;28;20369;-81
2023/07/07 00:22:51;;;;;;;7.75;5.28;;;14.20;99.90;;;;;;6258405;28;20041;-80
2023/07/07 00:26:04;;;;;;;5.78;4.15;;;14.20;99.90;;;;;;6253084;28;20463;-81
2023/07/07 00:29:06;;;;;;;7.28;4.70;;;14.10;99.90;;;;;;6256563;28;20131;-80
2023/07/07 00:32:09;;;;;;;7.13;4.55;;;14.10;99.90;;;;;;6256192;28;20084;-80
2023/07/07 00:35:11;;;;;;;8.52;3.40;;;14.00;99.90;;;;;;6255716;28;20053;-81
2023/07/07 00:38:13;;;;;;;4.45;3.60;;;14.00;99.90;;;;;;6255766;28;20048;-81
2023/07/07 00:41:15;;;;;;;6.53;4.57;;;13.90;99.90;;;;;;6256996;28;20041;-81
2023/07/07 00:44:17;;;;;;;9.73;4.18;;;13.90;99.90;;;;;;6256973;28;20051;-81
2023/07/07 00:47:20;;;;;;;7.75;4.20;;;14.10;99.90;;;;;;6257499;28;20045;-80
2023/07/07 00:50:25;;;;;;;7.13;4.15;;;13.90;99.90;;;;;;6244491;28;20049;-80
2023/07/07 00:53:27;;;;;;;7.32;4.40;;;13.80;99.90;;;;;;6232284;28;20348;-81
2023/07/07 00:56:35;;;;;;;6.05;5.22;;;13.80;99.90;;;;;;6231930;28;20119;-81
2023/07/07 00:59:40;;;;;;;4.65;3.97;;;13.80;99.90;;;;;;6226401;28;20198;-80
2023/07/07 01:02:54;;;;;;;7.75;5.22;;;13.80;99.90;;;;;;6226851;28;20038;-81
2023/07/07 01:05:59;;;;;;;6.60;4.13;;;13.80;99.90;;;;;;6227269;28;20061;-81
2023/07/07 01:09:04;;;;;;;5.97;4.78;;;13.80;99.90;;;;;;6229526;28;20121;-81
2023/07/07 01:12:11;;;;;;;7.70;4.55;;;13.70;99.90;;;;;;6227572;28;20053;-82
2023/07/07 01:15:13;;;;;;;13.93;4.72;;;13.70;99.90;;;;;;6228852;28;20058;-82
2023/07/07 01:18:26;;;;;;;6.28;4.43;;;13.70;99.90;;;;;;6227461;28;20057;-80
2023/07/07 01:21:33;;;;;;;5.25;4.53;;;13.60;99.90;;;;;;6237850;28;20049;-81
2023/07/07 01:24:56;;;;;;;7.55;5.03;;;13.60;99.90;;;;;;6252565;28;20072;-82
2023/07/07 01:28:23;;;;;;;6.15;5.50;;;13.60;99.90;;;;;;6254501;28;20045;-80
2023/07/07 01:31:32;;;;;;;11.60;5.35;;;13.50;99.90;;;;;;6249653;28;20052;-80
2023/07/07 01:34:36;;;;;;;7.43;5.38;;;13.50;99.90;;;;;;6250490;28;20037;-81
2023/07/07 01:37:37;;;;;;;8.40;4.82;;;13.40;99.90;;;;;;6250585;28;20049;-80
2023/07/07 01:40:43;;;;;;;6.20;4.68;;;13.30;99.90;;;;;;6250425;28;20045;-80
2023/07/07 01:43:51;;;;;;;8.05;5.53;;;13.40;99.90;;;;;;6251627;28;20490;-80
2023/07/07 01:46:59;;;;;;;6.25;5.13;;;13.30;99.90;;;;;;6251399;28;20041;-80
2023/07/07 01:50:02;;;;;;;;;;;13.30;99.90;;;;;;6249040;28;20052;-79
2023/07/07 01:53:09;;;;;;;8.40;5.78;;;13.30;99.90;;;;;;6249882;28;20336;-81
2023/07/07 01:56:12;;;;;;;11.10;5.07;;;13.20;99.90;;;;;;6249029;28;20412;-80
2023/07/07 01:59:16;;;;;;;6.95;4.53;;;13.20;99.90;;;;;;6240095;28;20052;-81
2023/07/07 02:02:19;;;;;;;6.00;4.78;;;13.20;99.90;;;;;;6248815;28;20095;-80
2023/07/07 02:05:20;;;;;;;10.48;4.38;;;13.20;99.90;;;;;;6248866;28;20053;-80
2023/07/07 02:08:22;;;;;;;5.30;4.43;;;13.10;99.90;;;;;;6248345;28;20045;-80
2023/07/07 02:11:24;;;;;;;11.15;5.45;;;13.00;99.90;;;;;;6248779;28;20041;-81
2023/07/07 02:14:25;;;;;;;7.03;4.70;;;13.00;99.90;;;;;;6250079;28;20394;-81
2023/07/07 02:17:29;;;;;;;9.00;4.93;;;13.00;99.90;;;;;;6249453;28;20519;-80
2023/07/07 02:20:32;;;;;;;6.18;4.55;;;13.00;99.90;;;;;;6249552;28;20504;-81
2023/07/07 02:23:34;;;;;;;7.88;5.10;;;13.00;99.90;;;;;;6249310;28;20057;-79
2023/07/07 02:26:36;;;;;;;7.90;5.15;;;12.90;99.90;;;;;;6249329;28;20045;-81
2023/07/07 02:29:38;;;;;;;8.60;5.60;;;12.80;99.90;;;;;;6250587;28;20484;-80
2023/07/07 02:32:41;;;;;;;7.18;5.60;;;12.90;99.90;;;;;;6251511;28;20045;-81
2023/07/07 02:35:48;;;;;;;8.60;5.03;;;12.80;99.90;;;;;;6253413;28;20042;-80
2023/07/07 02:38:50;;;;;;;6.10;5.05;;;12.80;99.90;;;;;;6251007;28;20041;-80
2023/07/07 02:41:52;;;;;;;5.80;5.10;;;12.80;99.90;;;;;;6249717;28;20052;-81
2023/07/07 02:44:54;;;;;;;5.10;4.60;;;12.80;99.90;;;;;;6251383;28;20057;-81
2023/07/07 02:47:58;;;;;;;7.65;4.70;;;12.80;99.90;;;;;;6248696;28;20050;-81
2023/07/07 02:51:02;;;;;;;8.40;4.85;;;12.70;99.90;;;;;;6248467;28;20052;-81
2023/07/07 02:54:06;;;;;;;7.13;5.03;;;12.80;99.90;;;;;;6248368;28;20359;-81
2023/07/07 02:57:07;;;;;;;7.35;4.63;;;12.70;99.90;;;;;;6249345;28;20519;-80
2023/07/07 03:00:12;;;;;;;6.47;4.63;;;12.80;99.90;;;;;;6247762;28;20051;-81
2023/07/07 03:03:16;;;;;;;6.57;5.13;;;12.70;99.90;;;;;;6248902;28;20057;-80
2023/07/07 03:06:20;;;;;;;5.15;4.72;;;12.70;99.90;;;;;;6252011;28;20046;-80
2023/07/07 03:09:21;;;;;;;9.20;4.60;;;12.70;99.90;;;;;;6253024;28;20076;-80
2023/07/07 03:12:23;;;;;;;6.20;5.68;;;12.60;99.90;;;;;;6249424;28;20042;-81
2023/07/07 03:15:29;;;;;;;6.63;5.60;;;12.60;99.90;;;;;;6250189;28;20045;-79
2023/07/07 03:18:32;;;;;;;5.95;5.35;;;12.60;99.90;;;;;;6251409;28;20053;-80
2023/07/07 03:21:34;;;;;;;6.00;5.40;;;12.60;99.90;;;;;;6252796;28;20416;-80
2023/07/07 03:24:36;;;;;;;8.55;4.97;;;12.60;99.90;;;;;;6252341;28;20050;-81
2023/07/07 03:27:37;;;;;;;5.18;4.57;;;12.70;99.90;;;;;;6252167;28;20069;-80
2023/07/07 03:30:39;;;;;;;6.10;4.63;;;12.70;99.90;;;;;;6250036;28;20048;-80
2023/07/07 03:33:44;;;;;;;6.60;5.43;;;12.60;99.90;;;;;;6248092;28;20052;-80
2023/07/07 03:36:46;;;;;;;21.25;7.10;;;12.70;99.90;;;;;;6247599;28;20121;-80
2023/07/07 03:39:47;;;;;;;9.63;6.15;;;12.80;99.90;;;;;;6246785;28;20440;-81
2023/07/07 03:42:49;;;;;;;8.02;5.18;;;12.80;99.90;;;;;;6246734;28;20053;-81
2023/07/07 03:45:51;;;;;;;7.43;4.93;;;12.80;99.90;;;;;;6247066;28;20041;-80
2023/07/07 03:48:55;;;;;;;8.45;5.45;;;12.80;99.90;;;;;;6247483;28;20057;-82
2023/07/07 03:51:56;;;;;;;6.63;3.90;;;12.80;99.90;;;;;;6246639;28;20509;-80
2023/07/07 03:54:58;;;;;;;10.43;5.40;;;12.80;99.90;;;;;;6246650;28;20045;-80
2023/07/07 03:58:00;;;;;;;7.30;5.72;;;12.90;99.90;;;;;;6222693;28;20038;-81
2023/07/07 04:01:02;;;;;;;5.82;4.80;;;13.00;99.90;;;;;;6223633;28;20054;-80
2023/07/07 04:04:05;;;;;;;6.05;4.68;;;13.20;99.90;;;;;;6222942;28;20053;-83
2023/07/07 04:07:07;;;;;;;6.43;4.80;;;13.30;99.90;;;;;;6223183;28;20049;-81
2023/07/07 04:10:09;;;;;;;8.32;4.60;;;13.40;99.90;;;;;;6222787;28;20054;-81
2023/07/07 04:13:11;;;;;;;6.93;4.68;;;13.50;99.90;;;;;;6223310;28;20046;-79
2023/07/07 04:16:15;;;;;;;7.53;4.45;;;13.50;99.90;;;;;;6221871;28;20046;-79
2023/07/07 04:19:18;;;;;;;11.38;5.18;;;13.60;99.90;;;;;;6220438;28;20050;-79
2023/07/07 04:22:20;;;;;;;8.25;5.50;;;13.70;99.90;;;;;;6220848;28;20078;-79
2023/07/07 04:25:21;;;;;;;5.07;3.67;;;13.90;99.90;;;;;;6221295;28;20050;-79
2023/07/07 04:28:23;;;;;;;7.68;5.78;;;14.20;99.90;;;;;;6221006;28;20046;-79
2023/07/07 04:31:26;;;;;;;5.07;4.15;;;14.30;99.90;;;;;;6220115;28;20049;-81
2023/07/07 04:34:30;;;;;;;5.95;4.10;;;14.40;99.90;;;;;;6220690;28;20046;-79
2023/07/07 04:37:32;;;;;;;8.82;4.25;;;14.60;99.90;;;;;;6220837;28;20416;-79
2023/07/07 04:40:34;;;;;;;4.85;4.32;;;14.70;99.90;;;;;;6221342;28;20046;-79
2023/07/07 04:43:37;;;;;;;5.63;4.00;;;14.80;99.90;;;;;;6220913;28;20072;-80
2023/07/07 04:46:40;;;;;;;5.13;4.00;;;15.00;99.90;;;;;;6221386;28;20049;-81
2023/07/07 04:49:43;;;;;;;6.38;4.38;;;15.20;99.90;;;;;;6222325;28;20072;-80
2023/07/07 04:52:45;;;;;;;7.20;3.97;;;15.40;99.90;;;;;;6223521;28;20076;-80
2023/07/07 04:55:46;;;;;;;5.65;4.40;;;15.60;99.90;;;;;;6225522;28;20050;-81
2023/07/07 04:58:50;;;;;;;5.40;4.07;;;15.80;99.90;;;;;;6225456;28;20058;-81
2023/07/07 05:01:51;;;;;;;5.00;3.60;;;16.00;99.90;;;;;;6226423;28;20037;-81
2023/07/07 05:04:54;;;;;;;7.55;4.47;;;16.40;99.90;;;;;;6226534;28;20050;-82
2023/07/07 05:07:56;;;;;;;4.47;3.17;;;16.90;99.90;;;;;;6225177;28;20050;-81
2023/07/07 05:10:58;;;;;;;5.35;4.53;;;17.40;99.90;;;;;;6225831;28;20057;-81
2023/07/07 05:14:00;;;;;;;7.53;3.47;;;17.70;99.90;;;;;;6225709;28;20045;-81
2023/07/07 05:17:02;;;;;;;6.93;4.45;;;17.80;99.90;;;;;;6225910;28;20053;-81
2023/07/07 05:20:07;;;;;;;6.78;3.80;;;18.00;99.90;;;;;;6226505;28;20497;-81
2023/07/07 05:23:09;;;;;;;6.68;3.63;;;18.20;99.90;;;;;;6231438;28;20045;-80
2023/07/07 05:26:11;;;;;;;5.50;4.13;;;18.60;99.90;;;;;;6250299;28;20041;-82
2023/07/07 05:29:13;;;;;;;5.20;3.50;;;19.00;99.90;;;;;;6250602;28;20046;-81
2023/07/07 05:32:15;;;;;;;5.03;3.90;;;19.40;99.90;;;;;;6249757;28;20052;-81
2023/07/07 05:35:18;;;;;;;4.15;3.10;;;20.00;99.90;;;;;;6249919;28;20601;-81
2023/07/07 05:38:22;;;;;;;5.07;3.58;;;20.80;99.90;;;;;;6250876;28;20045;-82
2023/07/07 05:41:24;;;;;;;4.45;3.42;;;21.90;98.30;;;;;;6251720;28;20054;-81
2023/07/07 05:44:26;;;;;;;3.35;2.78;;;23.20;95.40;;;;;;6250502;28;20056;-82
2023/07/07 05:47:27;;;;;;;8.63;2.85;;;24.30;92.10;;;;;;6250672;28;20107;-81
2023/07/07 05:50:31;;;;;;;5.15;3.30;;;25.30;87.40;;;;;;6251087;28;20090;-83
2023/07/07 05:53:34;;;;;;;6.72;2.83;;;26.30;80.70;;;;;;6251484;28;20045;-81
2023/07/07 05:56:36;;;;;;;5.68;3.75;;;27.10;76.20;;;;;;6252704;28;20049;-83
2023/07/07 05:59:38;;;;;;;4.22;3.83;;;27.90;72.00;;;;;;6251038;28;20536;-80
2023/07/07 06:02:39;;;;;;;5.38;3.00;;;28.50;67.80;;;;;;6251979;28;20120;-81
2023/07/07 06:05:43;;;;;;;3.38;3.08;;;29.00;64.80;;;;;;6251077;28;20046;-81
2023/07/07 06:08:44;;;;;;;9.07;3.92;;;29.50;61.70;;;;;;6252217;28;20113;-80
2023/07/07 06:11:48;;;;;;;4.00;3.28;;;30.00;59.60;;;;;;6251543;28;20037;-80
2023/07/07 06:14:49;;;;;;;8.60;3.58;;;30.30;57.10;;;;;;6251264;28;20053;-80
2023/07/07 06:17:51;;;;;;;6.25;2.58;;;30.50;55.60;;;;;;6249284;28;20045;-79
2023/07/07 06:20:57;;;;;;;3.55;2.67;;;30.70;53.80;;;;;;6252923;28;20142;-79
2023/07/07 06:24:00;;;;;;;3.57;2.40;;;30.50;52.50;;;;;;6221778;28;20131;-81
2023/07/07 06:27:05;;;;;;;9.98;3.47;;;30.40;52.50;;;;;;6233603;28;20180;-78
2023/07/07 06:30:08;;;;;;;4.20;2.92;;;30.60;51.40;;;;;;6239082;28;20093;-81
2023/07/07 06:33:10;;;;;;;3.83;3.00;;;30.00;50.70;;;;;;6241205;28;20045;-81
2023/07/07 06:36:13;;;;;;;3.63;2.70;;;28.90;51.70;;;;;;6239991;28;20056;-82
2023/07/07 06:39:14;;;;;;;6.47;2.88;;;27.80;53.10;;;;;;6237045;28;20052;-82
2023/07/07 06:42:16;;;;;;;5.35;3.10;;;27.10;54.40;;;;;;6241189;28;20041;-82
2023/07/07 06:45:18;;;;;;;4.55;3.38;;;26.30;55.20;;;;;;6242271;28;20058;-82
2023/07/07 06:48:20;;;;;;;5.03;2.72;;;25.70;56.00;;;;;;6241470;28;20056;-81
2023/07/07 06:51:23;;;;;;;5.78;3.70;;;25.20;56.90;;;;;;6240356;28;20121;-82
2023/07/07 06:54:25;;;;;;;6.88;3.33;;;24.70;57.70;;;;;;6241760;28;20045;-82
2023/07/07 06:57:26;;;;;;;9.48;3.58;;;24.30;58.50;;;;;;6241228;28;20053;-81
2023/07/07 07:00:28;;;;;;;6.53;3.95;;;24.00;59.10;;;;;;6243344;28;20053;-82
2023/07/07 07:03:30;;;;;;;5.35;3.10;;;23.90;60.00;;;;;;6244407;28;20242;-82
2023/07/07 07:06:33;;;;;;;6.30;2.97;;;24.00;60.10;;;;;;6255739;28;20054;-81
2023/07/07 07:09:35;;;;;;;6.55;3.58;;;23.90;60.30;;;;;;6244126;28;20079;-81
2023/07/07 07:12:36;;;;;;;6.15;3.22;;;23.70;61.20;;;;;;6241275;28;20058;-81
2023/07/07 07:15:38;;;;;;;4.07;2.83;;;23.80;61.00;;;;;;6242934;28;20061;-82
2023/07/07 07:18:40;;;;;;;6.93;3.20;;;24.00;61.60;;;;;;6243366;28;20061;-81
2023/07/07 07:21:43;;;;;;;5.22;3.70;;;24.20;61.50;;;;;;6240742;28;20041;-82
2023/07/07 07:24:45;;;;;;;5.53;3.13;;;24.30;61.80;;;;;;6239664;28;20053;-82
2023/07/07 07:27:47;;;;;;;4.28;2.95;;;24.30;60.90;;;;;;6243324;28;20051;-82
2023/07/07 07:30:49;;;;;;;7.80;3.08;;;24.40;61.00;;;;;;6248670;28;20057;-82
2023/07/07 07:33:53;;;;;;;6.65;3.80;;;24.50;61.60;;;;;;6242280;28;20123;-82
2023/07/07 07:36:59;;;;;;;6.78;2.92;;;24.80;61.50;;;;;;6241186;28;20053;-81
2023/07/07 07:40:00;;;;;;;4.40;3.17;;;24.90;61.60;;;;;;6242530;28;20061;-81
2023/07/07 07:43:02;;;;;;;7.80;3.45;;;25.10;61.60;;;;;;6242690;28;20040;-81
2023/07/07 07:46:04;;;;;;;4.15;3.72;;;25.10;60.70;;;;;;6241687;28;20044;-81
2023/07/07 07:49:05;;;;;;;4.38;3.47;;;25.00;60.90;;;;;;6239129;28;20461;-79
2023/07/07 07:52:09;;;;;;;4.18;3.30;;;25.20;61.10;;;;;;6239216;28;20504;-80
2023/07/07 07:55:11;;;;;;;7.45;2.95;;;25.30;60.80;;;;;;6241262;28;20060;-81
2023/07/07 07:58:12;;;;;;;6.35;3.13;;;25.50;60.60;;;;;;6239567;28;20048;-82
2023/07/07 08:01:14;;;;;;;5.68;3.03;;;25.60;60.40;;;;;;6242842;28;20052;-83
2023/07/07 08:04:16;;;;;;;5.50;3.42;;;25.70;60.90;;;;;;6239944;28;20048;-82
2023/07/07 08:07:19;;;;;;;6.47;3.30;;;25.90;60.20;;;;;;6240099;28;20045;-82
2023/07/07 08:10:21;;;;;;;8.35;4.00;;;26.10;60.10;;;;;;6240517;28;20053;-81
2023/07/07 08:13:24;;;;;;;4.68;3.50;;;26.30;59.90;;;;;;6241456;28;20408;-82
2023/07/07 08:16:26;;;;;;;4.63;3.05;;;26.40;59.30;;;;;;6243400;28;20373;-81
2023/07/07 08:19:28;;;;;;;6.65;3.55;;;26.60;58.80;;;;;;6245038;28;20045;-82
2023/07/07 08:22:31;;;;;;;8.10;3.92;;;26.50;58.70;;;;;;6246593;28;20052;-81
2023/07/07 08:25:34;;;;;;;6.63;3.13;;;26.70;58.70;;;;;;6244630;28;20124;-82
2023/07/07 08:28:35;;;;;;;6.22;3.75;;;27.00;58.50;;;;;;6242803;28;20060;-82
2023/07/07 08:31:37;;;;;;;5.00;3.60;;;27.20;58.20;;;;;;6250248;28;20038;-82
2023/07/07 08:34:39;;;;;;;3.45;3.15;;;27.40;57.90;;;;;;6250243;28;20045;-81
2023/07/07 08:37:42;;;;;;;5.78;3.78;;;27.50;58.00;;;;;;6242772;28;20136;-80
2023/07/07 08:40:48;;;;;;;3.90;3.25;;;27.80;57.90;;;;;;6244326;28;20056;-81
2023/07/07 08:43:49;;;;;;;4.00;3.63;;;28.00;57.40;;;;;;6246173;28;20038;-83
2023/07/07 08:47:08;;;;;;;3.83;3.05;;;28.30;56.80;;;;;;6248622;28;20069;-82
2023/07/07 08:50:17;;;;;;;4.50;3.30;;;28.50;56.30;;;;;;6250706;28;20049;-82
2023/07/07 08:53:44;;;;;;;5.18;3.20;;;28.50;55.50;;;;;;6251973;28;20061;-81
2023/07/07 08:56:52;;;;;;;4.13;3.38;;;28.60;55.60;;;;;;6245810;28;20921;-82
2023/07/07 09:00:01;;;;;;;5.03;3.33;;;28.80;55.00;;;;;;6248860;28;20042;-83
2023/07/07 09:03:22;;;;;;;5.78;3.72;;;28.70;54.50;;;;;;6249400;28;20044;-82
2023/07/07 09:06:36;;;;;;;7.55;3.60;;;28.60;54.20;;;;;;6247429;28;20045;-82
2023/07/07 09:10:05;;;;;;;7.55;3.70;;;28.70;54.50;;;;;;6246650;28;20060;-83
2023/07/07 09:13:11;;;;;;;;;;;28.80;54.20;;;;;;6249640;28;20520;-82
2023/07/07 09:16:19;;;;;;;8.70;3.90;;;29.00;54.50;;;;;;6253762;28;20394;-82
2023/07/07 09:19:26;;;;;;;6.78;3.40;;;29.30;54.10;;;;;;6252580;28;20044;-82
2023/07/07 09:22:32;;;;;;;4.40;3.50;;;29.30;53.40;;;;;;6253192;28;20045;-82
2023/07/07 09:25:40;;;;;;;6.95;4.22;;;29.50;53.40;;;;;;6249766;28;20045;-82
2023/07/07 09:28:49;;;;;;;4.82;3.72;;;29.60;52.70;;;;;;6252921;28;20049;-82
2023/07/07 09:31:51;;;;;;;5.80;3.97;;;29.60;52.90;;;;;;6248660;28;20050;-82
2023/07/07 09:34:53;;;;;;;7.50;3.67;;;29.90;52.70;;;;;;6253215;28;20037;-82
2023/07/07 09:38:06;;;;;;;4.68;3.67;;;30.20;52.30;;;;;;6247947;28;20048;-82
2023/07/07 09:41:17;;;;;;;8.77;4.75;;;30.40;52.00;;;;;;6248448;28;20056;-82
2023/07/07 09:44:33;;;;;;;6.40;4.72;;;30.50;52.00;;;;;;6251243;28;20056;-82
2023/07/07 09:47:44;;;;;;;7.25;4.70;;;30.60;51.80;;;;;;6250794;28;20052;-83
2023/07/07 09:50:54;;;;;;;8.98;3.75;;;30.90;51.20;;;;;;6247754;28;20532;-83
2023/07/07 09:53:56;;;;;;;5.28;3.60;;;30.70;50.70;;;;;;6244717;28;20113;-84
2023/07/07 09:57:03;;;;;;;4.50;4.05;;;30.70;50.80;;;;;;6247221;28;20056;-85
2023/07/07 10:00:07;;;;;;;7.90;3.63;;;30.80;50.60;;;;;;6247211;28;20056;-84
2023/07/07 10:03:20;;;;;;;7.05;3.35;;;31.00;50.70;;;;;;6249077;28;20052;-84
2023/07/07 10:06:28;;;;;;;8.20;4.72;;;31.30;50.70;;;;;;6251703;28;20547;-84
2023/07/07 10:09:31;;;;;;;18.83;4.72;;;31.40;50.30;;;;;;6252533;28;20053;-84
2023/07/07 10:12:34;;;;;;;3.67;3.25;;;31.70;49.70;;;;;;6252137;28;20050;-84
2023/07/07 10:15:49;;;;;;;5.97;4.55;;;31.80;49.40;;;;;;6250933;28;20135;-84
2023/07/07 10:18:51;;;;;;;7.00;4.38;;;32.00;49.20;;;;;;6251758;28;20056;-84
2023/07/07 10:21:53;;;;;;;6.43;3.67;;;32.20;49.00;;;;;;6251438;28;20045;-85
2023/07/07 10:24:55;;;;;;;5.40;4.10;;;32.40;48.30;;;;;;6252795;28;20060;-84
2023/07/07 10:27:59;;;;;;;6.72;4.75;;;32.50;47.80;;;;;;6252549;28;20049;-85
2023/07/07 10:31:08;;;;;;;5.18;3.92;;;32.60;47.60;;;;;;6255273;28;20045;-83
2023/07/07 10:34:23;;;;;;;6.38;4.30;;;32.80;47.10;;;;;;6254494;28;20041;-84
2023/07/07 10:37:26;;;;;;;6.30;4.18;;;32.90;46.60;;;;;;6254230;28;20065;-84
2023/07/07 10:40:28;;;;;;;13.05;5.53;;;33.10;46.50;;;;;;6253625;28;20084;-84
2023/07/07 10:43:31;;;;;;;9.35;4.50;;;33.30;46.00;;;;;;6252834;28;20424;-83
2023/07/07 10:46:32;;;;;;;7.00;4.20;;;33.50;45.70;;;;;;6253385;28;20050;-84
2023/07/07 10:49:34;;;;;;;9.15;5.45;;;33.80;45.80;;;;;;6253588;28;20046;-83
2023/07/07 10:52:55;;;;;;;10.18;4.50;;;34.00;44.90;;;;;;6253081;28;20049;-84
2023/07/07 10:56:21;;;;;;;8.15;4.65;;;34.20;44.50;;;;;;6252702;28;20420;-84
2023/07/07 10:59:37;;;;;;;7.90;4.38;;;34.30;44.00;;;;;;6252304;28;20496;-83
2023/07/07 11:02:54;;;;;;;9.90;5.03;;;34.20;44.00;;;;;;6251252;28;20048;-82
2023/07/07 11:06:01;;;;;;;4.95;4.40;;;34.40;44.30;;;;;;6250502;28;20611;-84
2023/07/07 11:09:15;;;;;;;6.50;5.78;;;34.70;44.00;;;;;;6253727;28;20460;-81
2023/07/07 11:12:26;;;;;;;6.53;4.15;;;34.90;43.10;;;;;;6250760;28;20049;-83
2023/07/07 11:15:42;;;;;;;8.00;4.43;;;35.00;43.30;;;;;;6249766;28;20508;-83
2023/07/07 11:19:05;;;;;;;10.35;5.35;;;35.30;43.00;;;;;;6251239;28;20048;-83
2023/07/07 11:22:22;;;;;;;11.30;4.68;;;35.50;42.80;;;;;;6250491;28;20444;-83
2023/07/07 11:25:27;;;;;;;;;;;35.50;42.40;;;;;;6252066;28;20048;-83
2023/07/07 11:28:40;;;;;;;6.70;5.10;;;35.60;42.90;;;;;;6251151;28;19944;-84
2023/07/07 11:32:09;;;;;;;7.72;6.00;;;35.70;41.60;;;;;;6249416;28;20072;-83
2023/07/07 11:35:42;;;;;;;7.70;5.50;;;35.70;40.70;;;;;;6249351;28;20049;-83
2023/07/07 11:39:00;;;;;;;9.00;5.15;;;36.00;40.40;;;;;;6236459;28;20037;-84
2023/07/07 11:42:18;;;;;;;8.48;5.28;;;36.20;40.50;;;;;;6248194;28;20041;-83
2023/07/07 11:45:31;;;;;;;5.43;4.35;;;36.40;40.80;;;;;;6249686;28;20042;-85
2023/07/07 11:48:43;;;;;;;6.43;5.75;;;36.60;40.50;;;;;;6250150;28;20139;-83
2023/07/07 11:51:52;;;;;;;6.72;5.85;;;36.90;39.00;;;;;;6250468;28;20055;-83
2023/07/07 11:55:08;;;;;;;8.90;6.47;;;37.10;38.50;;;;;;6255052;28;20067;-84
2023/07/07 11:58:22;;;;;;;8.65;5.50;;;37.10;38.70;;;;;;6253925;28;20042;-84
2023/07/07 12:01:31;;;;;;;7.63;4.88;;;37.30;38.50;;;;;;6247390;28;20049;-82
2023/07/07 12:04:41;;;;;;;9.05;6.07;;;37.40;38.50;;;;;;6240291;28;20559;-84
2023/07/07 12:07:47;;;;;;;10.45;6.40;;;37.50;37.80;;;;;;6234801;28;21923;-84
2023/07/07 12:10:52;;;;;;;14.20;8.13;;;37.80;37.30;;;;;;6244525;28;20045;-84
2023/07/07 12:14:18;;;;;;;9.77;6.40;;;37.90;36.50;;;;;;6248644;28;20276;-83
2023/07/07 12:17:25;;;;;;;17.27;6.60;;;37.70;35.00;;;;;;6236101;28;20067;-84
2023/07/07 12:20:32;;;;;;;9.07;6.35;;;37.30;34.20;;;;;;6248187;28;20122;-84
2023/07/07 12:23:38;;;;;;;12.65;6.50;;;37.10;34.00;;;;;;6246420;28;20061;-82
2023/07/07 12:26:44;;;;;;;7.68;6.50;;;36.90;33.40;;;;;;6245075;28;20049;-83
2023/07/07 12:29:48;;;;;;;10.27;6.90;;;36.60;33.40;;;;;;6246940;28;20168;-85
2023/07/07 12:32:50;;;;;;;10.10;6.93;;;36.70;34.30;;;;;;6247096;28;20160;-83
2023/07/07 12:35:56;;;;;;;10.77;6.90;;;37.20;34.40;;;;;;6243816;28;20461;-83
2023/07/07 12:39:02;;;;;;;9.65;5.88;;;37.60;33.80;;;;;;6247305;28;20050;-83
2023/07/07 12:42:05;;;;;;;10.13;7.13;;;37.90;33.20;;;;;;6246248;28;20512;-82
2023/07/07 12:45:10;;;;;;;9.57;7.05;;;38.10;32.80;;;;;;6241961;28;20308;-84
2023/07/07 12:48:20;;;;;;;8.27;6.15;;;38.10;32.10;;;;;;6254485;28;20064;-81
2023/07/07 12:51:23;;;;;;;6.43;5.82;;;37.50;32.00;;;;;;6254686;28;20059;-84
2023/07/07 12:54:32;;;;;;;7.32;6.10;;;37.60;32.30;;;;;;6256928;28;21533;-82
2023/07/07 12:57:35;;;;;;;7.53;6.25;;;38.00;32.30;;;;;;6254944;28;20049;-82
2023/07/07 13:00:40;;;;;;;7.78;6.97;;;38.20;31.80;;;;;;6253390;28;20041;-81
2023/07/07 13:03:56;;;;;;;7.55;6.63;;;37.80;31.20;;;;;;6249635;28;20067;-82
2023/07/07 13:07:06;;;;;;;8.65;6.65;;;37.40;31.60;;;;;;6246815;28;20068;-83
2023/07/07 13:10:33;;;;;;;7.43;6.22;;;37.10;31.60;;;;;;6249754;28;20177;-83
2023/07/07 13:13:37;;;;;;;7.95;6.53;;;36.70;31.60;;;;;;6251121;28;20415;-80
2023/07/07 13:16:39;;;;;;;7.80;6.43;;;36.90;31.50;;;;;;6249724;28;20052;-82
2023/07/07 13:19:48;;;;;;;8.63;6.55;;;37.40;31.20;;;;;;6248447;28;20041;-83
2023/07/07 13:22:56;;;;;;;7.20;6.05;;;37.70;31.60;;;;;;6250823;28;20044;-82
2023/07/07 13:25:57;;;;;;;7.03;6.22;;;38.20;31.70;;;;;;6251379;28;20049;-82
2023/07/07 13:29:00;;;;;;;6.50;5.80;;;38.60;31.40;;;;;;6252059;28;20104;-81
2023/07/07 13:32:02;;;;;;;8.75;6.03;;;38.90;31.50;;;;;;6251048;28;20060;-83
2023/07/07 13:35:04;;;;;;;9.68;6.57;;;39.20;31.40;;;;;;6251454;28;20453;-80
2023/07/07 13:38:10;;;;;;;6.28;5.43;;;39.40;31.10;;;;;;6252133;28;20168;-82
2023/07/07 13:41:15;;;;;;;7.43;6.72;;;39.60;30.50;;;;;;6249234;28;20053;-83
2023/07/07 13:44:19;;;;;;;10.57;7.25;;;39.90;30.80;;;;;;6249757;28;20469;-83
2023/07/07 13:47:23;;;;;;;15.18;7.60;;;39.90;30.80;;;;;;6251564;28;20136;-85
2023/07/07 13:50:28;;;;;;;6.43;5.82;;;39.80;30.20;;;;;;6249060;28;20049;-84
2023/07/07 13:53:31;;;;;;;7.35;6.35;;;39.90;30.10;;;;;;6249112;28;20060;-81
2023/07/07 13:56:36;;;;;;;9.93;7.07;;;39.90;30.10;;;;;;6247048;28;20046;-83
2023/07/07 13:59:39;;;;;;;8.48;6.53;;;39.80;30.00;;;;;;6249705;28;20140;-82
2023/07/07 14:02:43;;;;;;;9.10;5.88;;;39.80;30.20;;;;;;6242084;28;20045;-82
2023/07/07 14:05:48;;;;;;;10.77;6.95;;;39.90;30.00;;;;;;6241354;28;20045;-79
2023/07/07 14:08:52;;;;;;;8.70;7.35;;;40.00;29.90;;;;;;6245031;28;20049;-81
2023/07/07 14:11:56;;;;;;;8.10;6.13;;;40.20;29.90;;;;;;6241102;28;20053;-80
2023/07/07 14:14:59;;;;;;;11.00;6.28;;;40.10;29.40;;;;;;6241826;28;20053;-80
2023/07/07 14:18:04;;;;;;;7.75;7.00;;;39.70;29.60;;;;;;6241639;28;20392;-81
2023/07/07 14:21:08;;;;;;;6.78;6.03;;;39.20;29.80;;;;;;6242076;28;20049;-81
2023/07/07 14:24:15;;;;;;;14.05;7.43;;;39.20;29.50;;;;;;6240224;28;20045;-81
2023/07/07 14:27:19;;;;;;;6.57;5.97;;;39.20;29.40;;;;;;6245161;28;20047;-82
2023/07/07 14:30:24;;;;;;;12.73;5.47;;;39.40;29.60;;;;;;6246764;28;20611;-80
2023/07/07 14:33:28;;;;;;;10.25;6.65;;;39.20;29.50;;;;;;6243660;28;20064;-82
2023/07/07 14:36:31;;;;;;;7.75;6.30;;;38.80;29.70;;;;;;6241765;28;20055;-83
2023/07/07 14:39:38;;;;;;;10.35;7.38;;;38.50;29.50;;;;;;6242950;28;20140;-83
2023/07/07 14:42:50;;;;;;;6.72;6.00;;;38.10;29.90;;;;;;6241081;28;20060;-81
2023/07/07 14:45:53;;;;;;;8.05;6.50;;;38.00;29.80;;;;;;6243010;28;20104;-83
2023/07/07 14:48:58;;;;;;;10.02;6.70;;;38.00;29.80;;;;;;6241121;28;20045;-82
2023/07/07 14:51:59;;;;;;;8.70;7.18;;;37.60;30.00;;;;;;6239736;28;20669;-83
2023/07/07 14:55:09;;;;;;;9.13;6.50;;;37.70;30.00;;;;;;6243115;28;20053;-84
2023/07/07 14:58:16;;;;;;;6.22;5.63;;;37.80;30.30;;;;;;6259360;28;20049;-84
2023/07/07 15:01:20;;;;;;;8.95;6.38;;;37.60;29.90;;;;;;6258387;28;20055;-83
2023/07/07 15:04:24;;;;;;;9.55;6.95;;;38.00;29.90;;;;;;6256393;28;20092;-83
2023/07/07 15:07:29;;;;;;;7.38;6.38;;;38.20;29.70;;;;;;6256265;28;22833;-85
2023/07/07 15:10:33;;;;;;;10.98;5.85;;;38.10;29.90;;;;;;6256516;28;20041;-82
2023/07/07 15:13:36;;;;;;;10.00;6.32;;;38.20;30.20;;;;;;6253989;28;20067;-82
2023/07/07 15:16:38;;;;;;;8.85;7.00;;;38.30;30.20;;;;;;6251459;28;20064;-80
2023/07/07 15:19:43;;;;;;;9.63;6.07;;;38.40;29.90;;;;;;6251091;28;20436;-83
2023/07/07 15:22:46;;;;;;;10.75;6.97;;;38.10;29.70;;;;;;6256785;28;20052;-81
2023/07/07 15:25:49;;;;;;;7.97;6.47;;;38.10;30.00;;;;;;6260180;28;20064;-80
2023/07/07 15:28:51;;;;;;;8.90;6.43;;;38.50;30.70;;;;;;6256983;28;20053;-83
2023/07/07 15:31:53;;;;;;;8.25;7.18;;;38.60;30.80;;;;;;6256153;28;20058;-81
2023/07/07 15:34:55;;;;;;;8.25;7.00;;;38.20;30.90;;;;;;6246675;28;20049;-85
2023/07/07 15:38:20;;;;;;;8.20;6.63;;;38.10;31.00;;;;;;6255378;28;20049;-81
2023/07/07 15:41:25;;;;;;;7.35;6.65;;;38.20;31.30;;;;;;6257441;28;20159;-82
2023/07/07 15:44:27;;;;;;;8.25;5.97;;;38.40;31.00;;;;;;6255907;28;20041;-85
2023/07/07 15:47:28;;;;;;;8.32;6.63;;;38.50;31.30;;;;;;6253325;28;20522;-85
2023/07/07 15:50:32;;;;;;;11.55;6.90;;;38.60;31.10;;;;;;6256592;28;20051;-83
2023/07/07 15:53:34;;;;;;;7.00;6.13;;;38.40;30.70;;;;;;6250015;28;20050;-84
2023/07/07 15:56:39;;;;;;;9.88;7.85;;;38.30;31.00;;;;;;6253024;28;20049;-83
2023/07/07 15:59:42;;;;;;;8.13;7.22;;;37.90;30.70;;;;;;6242501;28;20045;-82
2023/07/07 16:02:44;;;;;;;8.15;5.90;;;37.40;30.50;;;;;;6235185;28;20075;-81